Time;durP1;ratioP1;P1;durP2;ratioP2;P2;SDS_P1;SDS_P2;PMS_P1;PMS_P2;Temp;Humidity;BMP_temperature;BMP_pressure;BME280_temperature;BME280_humidity;BME280_pressure;Samples;Min_cycle;Max_cycle;Signal;HPM_P1;HPM_P2
2023/02/24 00:01:17;;;;;;;22.02;19.75;;;4.70;99.90;;;;;;4197322;28;20405;-87
2023/02/24 00:03:37;;;;;;;28.95;24.27;;;4.70;99.90;;;;;;4183804;28;20043;-87
2023/02/24 00:05:57;;;;;;;23.45;18.88;;;4.80;99.90;;;;;;4197135;28;20056;-87
2023/02/24 00:08:17;;;;;;;27.38;23.05;;;4.80;99.90;;;;;;4186510;28;20082;-87
2023/02/24 00:10:37;;;;;;;27.40;21.17;;;4.70;99.90;;;;;;4185539;28;20092;-87
2023/02/24 00:12:58;;;;;;;25.05;20.70;;;4.70;99.90;;;;;;4191536;28;20090;-87
2023/02/24 00:15:19;;;;;;;22.80;19.73;;;4.60;99.90;;;;;;4189733;28;20374;-87
2023/02/24 00:17:40;;;;;;;23.00;20.73;;;4.70;99.90;;;;;;4191496;28;20048;-87
2023/02/24 00:20:00;;;;;;;18.25;16.40;;;4.70;99.90;;;;;;4203281;28;20043;-87
2023/02/24 00:22:20;;;;;;;17.27;15.63;;;4.60;99.90;;;;;;4195222;28;20101;-87
2023/02/24 00:24:40;;;;;;;33.38;22.23;;;4.70;99.90;;;;;;4194265;28;20088;-87
2023/02/24 00:27:06;;;;;;;33.83;28.17;;;4.60;99.90;;;;;;4196581;28;20055;-87
2023/02/24 00:29:28;;;;;;;42.47;30.67;;;4.50;99.90;;;;;;4190070;28;20044;-86
2023/02/24 00:31:59;;;;;;;33.40;26.27;;;4.40;99.90;;;;;;4187482;28;20060;-87
2023/02/24 00:34:19;;;;;;;35.03;27.88;;;4.40;99.90;;;;;;4185407;28;20094;-87
2023/02/24 00:36:39;;;;;;;44.55;30.15;;;4.30;99.90;;;;;;4196379;28;20255;-87
2023/02/24 00:39:08;;;;;;;53.90;31.48;;;4.30;99.90;;;;;;4186735;28;20155;-87
2023/02/24 00:41:32;;;;;;;82.30;42.45;;;4.20;99.90;;;;;;4191812;28;20068;-87
2023/02/24 00:43:52;;;;;;;70.28;40.22;;;4.30;99.90;;;;;;4178714;28;20048;-86
2023/02/24 00:46:17;;;;;;;35.17;25.40;;;4.20;99.90;;;;;;4188036;28;20082;-87
2023/02/24 00:48:40;;;;;;;35.95;26.52;;;4.10;99.90;;;;;;4180276;28;20415;-87
2023/02/24 00:51:00;;;;;;;36.25;27.80;;;4.10;99.90;;;;;;4177998;28;20044;-87
2023/02/24 00:53:21;;;;;;;34.47;24.48;;;4.10;99.90;;;;;;4178568;28;20049;-87
2023/02/24 00:55:40;;;;;;;43.25;32.08;;;4.10;99.90;;;;;;4190467;28;20067;-87
2023/02/24 00:58:01;;;;;;;32.67;26.55;;;4.10;99.90;;;;;;4183836;28;20091;-87
2023/02/24 01:00:22;;;;;;;27.85;24.77;;;4.20;99.90;;;;;;4184236;28;20108;-86
2023/02/24 01:35:13;;;;;;;23.23;20.70;;;3.60;99.90;;;;;;4181118;28;20043;-87
2023/02/24 01:37:33;;;;;;;22.30;20.25;;;3.60;99.90;;;;;;4181919;28;20081;-87
2023/02/24 01:39:53;;;;;;;23.10;20.42;;;3.80;99.90;;;;;;4188853;28;20071;-86
2023/02/24 01:42:15;;;;;;;20.92;19.17;;;3.90;99.90;;;;;;4191806;28;20078;-86
2023/02/24 01:44:55;;;;;;;25.38;22.30;;;3.90;99.90;;;;;;4189943;28;20040;-86
2023/02/24 01:47:19;;;;;;;24.33;21.80;;;3.90;99.90;;;;;;4185024;28;20148;-86
2023/02/24 01:49:41;;;;;;;28.67;22.42;;;3.90;99.90;;;;;;4188711;28;20662;-87
2023/02/24 01:52:11;;;;;;;32.42;24.05;;;3.90;99.90;;;;;;4205309;28;20302;-87
2023/02/24 01:54:41;;;;;;;25.60;22.65;;;3.90;99.90;;;;;;4192888;28;20036;-86
2023/02/24 01:57:04;;;;;;;27.20;23.50;;;3.90;99.90;;;;;;4196131;28;20117;-86
2023/02/24 01:59:28;;;;;;;25.15;21.45;;;3.80;99.90;;;;;;4189661;28;20078;-87
2023/02/24 02:01:52;;;;;;;22.90;20.60;;;3.70;99.90;;;;;;4179277;28;20056;-86
2023/02/24 02:04:38;;;;;;;25.85;21.77;;;3.70;99.90;;;;;;4194785;28;20047;-86
2023/02/24 02:06:59;;;;;;;23.02;20.77;;;3.80;99.90;;;;;;4193853;28;20047;-87
2023/02/24 02:09:19;;;;;;;23.58;20.95;;;3.80;99.90;;;;;;4187861;28;20390;-87
2023/02/24 02:11:48;;;;;;;22.73;18.77;;;3.90;99.90;;;;;;4192003;28;20055;-86
2023/02/24 02:14:09;;;;;;;20.65;18.85;;;4.00;99.90;;;;;;4188971;28;20116;-87
2023/02/24 02:16:42;;;;;;;22.67;20.48;;;4.00;99.90;;;;;;4191617;28;20052;-86
2023/02/24 02:19:05;;;;;;;;;;;3.80;99.90;;;;;;4194571;28;20087;-86
2023/02/24 02:21:47;;;;;;;24.95;20.25;;;3.80;99.90;;;;;;4195237;28;20022;-86
2023/02/24 02:24:36;;;;;;;23.73;21.63;;;3.90;99.90;;;;;;4182231;28;20149;-86
2023/02/24 02:27:22;;;;;;;21.70;19.75;;;3.80;99.90;;;;;;4188811;28;20374;-86
2023/02/24 02:29:55;;;;;;;24.55;21.95;;;3.80;99.90;;;;;;4190023;28;20055;-87
2023/02/24 02:33:00;;;;;;;22.23;19.98;;;3.80;99.90;;;;;;4203514;28;20063;-86
2023/02/24 02:35:36;;;;;;;22.75;20.48;;;3.80;99.90;;;;;;4185098;28;20071;-86
2023/02/24 02:38:11;;;;;;;23.85;21.33;;;3.90;99.90;;;;;;4203361;28;20278;-86
2023/02/24 02:40:43;;;;;;;23.15;20.25;;;3.80;99.90;;;;;;4186112;28;20422;-86
2023/02/24 02:43:28;;;;;;;23.15;20.88;;;3.80;99.90;;;;;;4197200;28;20105;-86
2023/02/24 02:46:09;;;;;;;21.63;19.75;;;3.90;99.90;;;;;;4192957;28;20063;-86
2023/02/24 02:48:40;;;;;;;24.20;21.80;;;4.00;99.90;;;;;;4186324;28;20108;-86
2023/02/24 02:51:25;;;;;;;22.10;19.95;;;3.90;99.90;;;;;;4199686;28;20064;-86
2023/02/24 02:53:58;;;;;;;22.42;20.35;;;4.00;99.90;;;;;;4185471;28;20140;-87
2023/02/24 02:56:30;;;;;;;21.73;19.15;;;4.10;99.90;;;;;;4204584;28;20047;-86
2023/02/24 02:58:55;;;;;;;20.35;18.60;;;4.10;99.90;;;;;;4183322;28;20228;-86
2023/02/24 03:01:19;;;;;;;21.52;19.40;;;4.20;99.90;;;;;;4199589;28;20075;-86
2023/02/24 03:03:48;;;;;;;23.00;20.20;;;4.30;99.90;;;;;;4193169;28;20160;-86
2023/02/24 03:06:28;;;;;;;21.33;19.55;;;4.40;99.90;;;;;;4196241;28;20040;-87
2023/02/24 03:08:57;;;;;;;22.58;18.52;;;4.40;99.90;;;;;;4179432;28;20040;-87
2023/02/24 03:11:20;;;;;;;20.27;18.77;;;4.30;99.90;;;;;;4191423;28;20132;-86
2023/02/24 03:13:44;;;;;;;20.25;17.58;;;4.30;99.90;;;;;;4188362;28;20052;-86
2023/02/24 03:16:05;;;;;;;22.65;19.10;;;4.20;99.90;;;;;;4200063;28;20040;-87
2023/02/24 03:18:31;;;;;;;21.13;19.10;;;4.10;99.90;;;;;;4197253;28;20044;-87
2023/02/24 03:20:56;;;;;;;21.38;19.48;;;4.00;99.90;;;;;;4203807;28;20081;-87
2023/02/24 03:23:20;;;;;;;22.33;20.50;;;3.90;99.90;;;;;;4183299;28;20129;-87
2023/02/24 03:25:47;;;;;;;22.13;19.98;;;3.90;99.90;;;;;;4193535;28;20087;-86
2023/02/24 03:28:15;;;;;;;20.70;18.75;;;4.00;99.90;;;;;;4187136;28;20116;-86
2023/02/24 03:30:42;;;;;;;20.50;18.65;;;4.10;99.90;;;;;;4199700;28;20039;-86
2023/02/24 03:33:08;;;;;;;20.85;19.33;;;4.00;99.90;;;;;;4186307;28;20052;-86
2023/02/24 03:35:33;;;;;;;22.73;20.48;;;4.00;99.90;;;;;;4194081;28;20076;-86
2023/02/24 03:37:56;;;;;;;21.13;19.10;;;4.00;99.90;;;;;;4196086;28;20051;-86
2023/02/24 03:40:17;;;;;;;22.52;20.00;;;4.10;99.90;;;;;;4205068;28;20183;-86
2023/02/24 03:42:42;;;;;;;24.13;21.75;;;4.20;99.90;;;;;;4197208;28;20066;-87
2023/02/24 03:45:05;;;;;;;21.73;19.52;;;4.10;99.90;;;;;;4183872;28;20052;-87
2023/02/24 03:47:26;;;;;;;20.63;18.83;;;4.10;99.90;;;;;;4190850;28;20393;-86
2023/02/24 03:49:46;;;;;;;21.48;19.33;;;4.00;99.90;;;;;;4192306;28;20235;-86
2023/02/24 03:52:20;;;;;;;23.77;21.20;;;4.00;99.90;;;;;;4189094;28;20113;-87
2023/02/24 03:55:05;;;;;;;29.17;26.10;;;4.10;99.90;;;;;;4196977;28;20062;-87
2023/02/24 03:57:35;;;;;;;26.63;23.33;;;4.10;99.90;;;;;;4196315;28;20170;-86
2023/02/24 04:00:32;;;;;;;23.02;20.58;;;4.20;99.90;;;;;;4198078;28;20056;-87
2023/02/24 04:03:33;;;;;;;24.52;22.23;;;4.30;99.90;;;;;;4196216;28;20060;-86
2023/02/24 04:06:00;;;;;;;23.00;21.00;;;4.30;99.90;;;;;;4194509;28;20052;-87
2023/02/24 04:08:23;;;;;;;24.95;22.70;;;4.40;99.90;;;;;;4196180;28;20115;-87
2023/02/24 04:11:09;;;;;;;24.77;21.77;;;4.40;99.90;;;;;;4192668;28;20297;-87
2023/02/24 04:13:53;;;;;;;26.25;22.92;;;4.40;99.90;;;;;;4188099;28;20052;-87
2023/02/24 04:16:27;;;;;;;25.48;22.80;;;4.40;99.90;;;;;;4180853;28;20368;-87
2023/02/24 04:18:50;;;;;;;23.77;21.50;;;4.40;99.90;;;;;;4192049;28;20048;-87
2023/02/24 04:21:10;;;;;;;21.90;20.00;;;4.30;99.90;;;;;;4211402;28;20106;-87
2023/02/24 04:23:37;;;;;;;25.25;22.98;;;4.30;99.90;;;;;;4181867;28;20068;-86
2023/02/24 04:25:58;;;;;;;25.55;23.05;;;4.20;99.90;;;;;;4198927;28;20108;-87
2023/02/24 04:28:21;;;;;;;23.23;20.55;;;4.20;99.90;;;;;;4196362;28;20090;-86
2023/02/24 04:30:43;;;;;;;;;;;4.20;99.90;;;;;;4188563;28;20052;-86
2023/02/24 04:33:03;;;;;;;20.40;18.55;;;4.20;99.90;;;;;;4208105;28;19923;-86
2023/02/24 04:35:25;;;;;;;24.23;21.95;;;4.20;99.90;;;;;;4193375;28;20079;-87
2023/02/24 04:37:46;;;;;;;23.85;21.50;;;4.20;99.90;;;;;;4191460;28;20059;-87
2023/02/24 04:40:09;;;;;;;21.70;19.77;;;4.20;99.90;;;;;;4191183;28;20079;-86
2023/02/24 04:42:29;;;;;;;;;;;4.20;99.90;;;;;;4192276;28;20055;-86
2023/02/24 04:44:49;;;;;;;20.55;18.92;;;4.30;99.90;;;;;;4178005;28;19923;-87
2023/02/24 04:47:10;;;;;;;17.83;16.48;;;4.30;99.90;;;;;;4182995;28;20111;-87
2023/02/24 04:49:30;;;;;;;17.52;16.23;;;4.40;99.90;;;;;;4193354;28;20413;-87
2023/02/24 04:51:51;;;;;;;18.45;16.95;;;4.40;99.90;;;;;;4194836;28;20124;-87
2023/02/24 04:54:16;;;;;;;17.45;15.95;;;4.50;99.90;;;;;;4185277;28;20036;-87
2023/02/24 04:56:39;;;;;;;17.25;15.63;;;4.50;99.90;;;;;;4192036;28;20063;-87
2023/02/24 04:58:59;;;;;;;17.40;15.82;;;4.50;99.90;;;;;;4192021;28;20052;-87
2023/02/24 05:01:20;;;;;;;16.45;14.98;;;4.50;99.90;;;;;;4183788;28;20048;-87
2023/02/24 05:03:43;;;;;;;15.15;14.13;;;4.50;99.90;;;;;;4189597;28;20082;-87
2023/02/24 05:06:05;;;;;;;15.40;14.30;;;4.50;99.90;;;;;;4193758;28;20051;-87
2023/02/24 05:08:26;;;;;;;15.45;14.20;;;4.50;99.90;;;;;;4198069;28;20048;-87
2023/02/24 05:10:49;;;;;;;15.20;13.98;;;4.60;99.90;;;;;;4202978;28;20090;-87
2023/02/24 05:13:13;;;;;;;18.67;16.70;;;4.60;99.90;;;;;;4189256;28;20134;-87
2023/02/24 05:15:34;;;;;;;22.48;17.65;;;4.60;99.90;;;;;;4190158;28;20304;-87
2023/02/24 05:17:53;;;;;;;18.15;16.70;;;4.60;99.90;;;;;;4189774;28;20165;-87
2023/02/24 05:23:05;;;;;;;19.58;17.77;;;4.70;99.90;;;;;;4166004;28;20083;-86
2023/02/24 05:25:25;;;;;;;21.30;19.00;;;4.70;99.90;;;;;;4192190;28;20057;-87
2023/02/24 05:27:46;;;;;;;19.58;17.88;;;4.70;99.90;;;;;;4180963;28;20053;-86
2023/02/24 05:30:08;;;;;;;21.80;19.55;;;4.80;99.90;;;;;;4190684;28;20086;-87
2023/02/24 05:32:28;;;;;;;19.17;17.40;;;4.80;99.90;;;;;;4203269;28;20056;-87
2023/02/24 05:34:48;;;;;;;18.13;16.60;;;4.80;99.90;;;;;;4190227;28;20052;-87
2023/02/24 05:37:09;;;;;;;19.38;17.95;;;4.60;99.90;;;;;;4177575;28;20048;-87
2023/02/24 05:39:29;;;;;;;19.35;17.48;;;4.60;99.90;;;;;;4193117;28;20040;-87
2023/02/24 05:41:53;;;;;;;20.10;18.33;;;4.60;99.90;;;;;;4195838;28;20299;-87
2023/02/24 05:44:15;;;;;;;20.27;18.42;;;4.60;99.90;;;;;;4189735;28;20138;-87
2023/02/24 05:46:39;;;;;;;23.25;20.98;;;4.60;99.90;;;;;;4199919;28;20115;-87
2023/02/24 05:49:03;;;;;;;20.02;18.45;;;4.70;99.90;;;;;;4179794;28;20105;-87
2023/02/24 05:51:34;;;;;;;21.67;19.55;;;4.60;99.90;;;;;;4182893;28;20048;-87
2023/02/24 05:53:54;;;;;;;21.50;18.65;;;4.60;99.90;;;;;;4188346;28;20074;-87
2023/02/24 05:56:18;;;;;;;21.20;19.02;;;4.60;99.90;;;;;;4188501;28;20107;-87
2023/02/24 05:58:38;;;;;;;21.98;19.83;;;4.50;99.90;;;;;;4184223;28;20075;-87
2023/02/24 06:01:05;;;;;;;24.08;20.65;;;4.50;99.90;;;;;;4187754;28;20055;-87
2023/02/24 06:03:29;;;;;;;19.88;17.98;;;4.50;99.90;;;;;;4191873;28;20102;-87
2023/02/24 06:05:53;;;;;;;24.05;21.80;;;4.50;99.90;;;;;;4191357;28;20074;-87
2023/02/24 06:08:12;;;;;;;24.30;21.75;;;4.60;99.90;;;;;;4195587;28;20059;-87
2023/02/24 06:10:33;;;;;;;25.98;21.33;;;4.60;99.90;;;;;;4196179;28;20075;-87
2023/02/24 06:12:53;;;;;;;25.00;22.50;;;4.60;99.90;;;;;;4187330;28;20083;-87
2023/02/24 06:15:15;;;;;;;21.92;19.80;;;4.60;99.90;;;;;;4187709;28;20068;-87
2023/02/24 06:17:35;;;;;;;22.58;20.35;;;4.60;99.90;;;;;;4179328;28;20363;-86
2023/02/24 06:19:56;;;;;;;20.88;18.67;;;4.60;99.90;;;;;;4177206;28;20052;-84
2023/02/24 06:22:18;;;;;;;19.45;17.85;;;4.60;99.90;;;;;;4180018;28;20044;-86
2023/02/24 06:24:43;;;;;;;20.83;18.93;;;4.60;99.90;;;;;;4189264;28;20052;-86
2023/02/24 06:27:09;;;;;;;19.67;18.02;;;4.60;99.90;;;;;;4197695;28;20052;-86
2023/02/24 06:29:29;;;;;;;18.90;17.17;;;4.60;99.90;;;;;;4189559;28;20051;-86
2023/02/24 06:31:50;;;;;;;23.85;20.48;;;4.60;99.90;;;;;;4179695;28;20056;-86
2023/02/24 06:34:11;;;;;;;20.63;19.02;;;4.60;99.90;;;;;;4186158;28;20080;-86
2023/02/24 06:36:31;;;;;;;18.98;17.05;;;4.70;99.90;;;;;;4189406;28;20052;-85
2023/02/24 06:38:52;;;;;;;22.40;19.90;;;4.70;99.90;;;;;;4185293;28;20044;-86
2023/02/24 06:41:16;;;;;;;21.35;19.83;;;4.70;99.90;;;;;;4186964;28;20044;-86
2023/02/24 06:43:42;;;;;;;20.15;18.35;;;4.70;99.90;;;;;;4184779;28;20068;-86
2023/02/24 06:46:04;;;;;;;18.77;16.77;;;4.70;99.90;;;;;;4188416;28;20048;-86
2023/02/24 06:48:26;;;;;;;16.40;15.05;;;4.70;99.90;;;;;;4192947;28;20390;-86
2023/02/24 06:50:49;;;;;;;16.23;14.90;;;4.80;99.90;;;;;;4177231;28;20048;-86
2023/02/24 06:53:15;;;;;;;18.65;16.63;;;4.80;99.90;;;;;;4187763;28;20087;-86
2023/02/24 06:55:35;;;;;;;15.85;14.40;;;4.90;99.90;;;;;;4186834;28;20106;-86
2023/02/24 06:57:58;;;;;;;19.55;17.50;;;5.00;99.90;;;;;;4196093;28;20064;-86
2023/02/24 07:00:24;;;;;;;20.00;18.25;;;5.00;99.90;;;;;;4187761;28;20048;-85
2023/02/24 07:02:44;;;;;;;18.60;17.10;;;5.10;99.90;;;;;;4183184;28;20075;-85
2023/02/24 07:05:05;;;;;;;18.55;16.17;;;5.10;99.90;;;;;;4189771;28;20084;-85
2023/02/24 07:07:27;;;;;;;18.85;17.00;;;5.10;99.90;;;;;;4192915;28;20159;-85
2023/02/24 07:09:47;;;;;;;19.65;17.80;;;5.20;99.90;;;;;;4196835;28;20067;-85
2023/02/24 07:12:09;;;;;;;18.27;16.50;;;5.20;99.90;;;;;;4193280;28;20059;-85
2023/02/24 07:14:30;;;;;;;17.33;15.82;;;5.30;99.90;;;;;;4178215;28;20386;-85
2023/02/24 07:16:53;;;;;;;19.00;17.08;;;5.30;99.90;;;;;;4190238;28;20042;-85
2023/02/24 07:19:14;;;;;;;17.33;15.95;;;5.30;99.90;;;;;;4196150;28;20087;-85
2023/02/24 07:21:38;;;;;;;18.75;17.27;;;5.40;99.90;;;;;;4194324;28;20224;-85
2023/02/24 07:23:58;;;;;;;19.08;17.52;;;5.30;99.90;;;;;;4179176;28;20109;-85
2023/02/24 07:26:21;;;;;;;20.52;18.52;;;5.30;99.90;;;;;;4200626;28;20302;-85
2023/02/24 07:28:44;;;;;;;22.88;20.52;;;5.40;99.90;;;;;;4190588;28;20398;-85
2023/02/24 07:31:07;;;;;;;25.25;20.42;;;5.50;99.90;;;;;;4182978;28;20044;-84
2023/02/24 07:33:27;;;;;;;28.80;24.48;;;5.50;99.90;;;;;;4187455;28;20134;-85
2023/02/24 07:35:50;;;;;;;27.15;22.83;;;5.70;99.90;;;;;;4193192;28;20122;-85
2023/02/24 07:38:15;;;;;;;27.08;20.33;;;5.70;99.90;;;;;;4193545;28;20047;-85
2023/02/24 07:40:35;;;;;;;20.75;19.08;;;5.80;99.90;;;;;;4190201;28;20094;-85
2023/02/24 07:42:56;;;;;;;28.80;23.15;;;5.80;99.90;;;;;;4194450;28;20044;-85
2023/02/24 07:45:16;;;;;;;28.10;23.77;;;5.80;99.90;;;;;;4190562;28;20091;-85
2023/02/24 07:47:36;;;;;;;23.40;21.05;;;5.90;99.90;;;;;;4186357;28;20051;-85
2023/02/24 07:49:56;;;;;;;29.23;23.77;;;5.90;99.90;;;;;;4182938;28;20043;-85
2023/02/24 07:52:16;;;;;;;26.63;23.60;;;6.10;99.90;;;;;;4184667;28;20084;-85
2023/02/24 07:54:38;;;;;;;24.77;20.15;;;6.10;99.90;;;;;;4192271;28;20060;-85
2023/02/24 07:56:58;;;;;;;28.70;23.65;;;6.20;99.90;;;;;;4187610;28;20052;-85
2023/02/24 07:59:20;;;;;;;29.10;24.05;;;6.20;99.90;;;;;;4193743;28;20047;-85
2023/02/24 08:01:48;;;;;;;42.63;29.45;;;6.20;99.90;;;;;;4195667;28;20378;-85
2023/02/24 08:04:11;;;;;;;37.65;28.42;;;6.30;99.90;;;;;;4191814;28;20051;-85
2023/02/24 08:06:42;;;;;;;30.33;22.42;;;6.40;99.90;;;;;;4188636;28;20074;-85
2023/02/24 08:09:19;;;;;;;28.15;22.33;;;6.50;99.90;;;;;;4194307;28;20043;-85
2023/02/24 08:11:41;;;;;;;29.20;20.20;;;6.60;99.90;;;;;;4199655;28;20052;-85
2023/02/24 08:14:09;;;;;;;39.53;29.08;;;6.60;99.90;;;;;;4191694;28;20064;-85
2023/02/24 08:16:40;;;;;;;23.05;20.60;;;6.70;99.90;;;;;;4197229;28;20040;-85
2023/02/24 08:19:02;;;;;;;20.95;18.95;;;6.80;99.90;;;;;;4196077;28;20113;-85
2023/02/24 08:21:26;;;;;;;27.13;21.52;;;6.90;99.90;;;;;;4194890;28;20048;-85
2023/02/24 08:23:46;;;;;;;24.60;21.20;;;6.90;99.90;;;;;;4188002;28;20146;-85
2023/02/24 08:26:11;;;;;;;20.70;18.83;;;6.90;99.90;;;;;;4184047;28;20245;-85
2023/02/24 08:28:31;;;;;;;22.00;19.83;;;7.00;99.90;;;;;;4197550;28;20043;-85
2023/02/24 08:30:51;;;;;;;24.20;21.85;;;7.00;99.90;;;;;;4190364;28;20064;-84
2023/02/24 08:33:18;;;;;;;28.58;25.20;;;7.10;99.90;;;;;;4192757;28;20043;-85
2023/02/24 08:35:43;;;;;;;22.80;20.58;;;7.10;99.90;;;;;;4203854;28;20066;-85
2023/02/24 08:38:08;;;;;;;24.77;21.80;;;7.20;99.90;;;;;;4193465;28;20044;-85
2023/02/24 08:42:51;;;;;;;24.35;21.92;;;7.20;99.90;;;;;;4196722;28;20048;-85
2023/02/24 08:45:13;;;;;;;25.13;22.30;;;7.30;99.90;;;;;;4193205;28;20295;-85
2023/02/24 08:47:34;;;;;;;26.65;22.42;;;7.30;99.90;;;;;;4191396;28;20072;-85
2023/02/24 08:49:54;;;;;;;21.95;19.85;;;7.30;99.90;;;;;;4179207;28;20083;-85
2023/02/24 08:52:14;;;;;;;25.33;21.00;;;7.40;99.90;;;;;;4193407;28;20044;-86
2023/02/24 08:54:46;;;;;;;21.15;19.00;;;7.40;99.90;;;;;;4191780;28;20109;-85
2023/02/24 08:57:13;;;;;;;16.38;15.05;;;7.60;99.90;;;;;;4195237;28;20043;-86
2023/02/24 08:59:37;;;;;;;13.73;12.50;;;7.70;99.90;;;;;;4188926;28;20091;-85
2023/02/24 09:05:03;;;;;;;15.25;14.20;;;7.80;99.90;;;;;;4162127;28;20060;-85
2023/02/24 09:07:34;;;;;;;16.77;15.52;;;8.00;99.90;;;;;;4154834;28;20395;-85
2023/02/24 09:09:55;;;;;;;16.50;14.63;;;8.30;99.90;;;;;;4165174;28;20133;-85
2023/02/24 09:12:23;;;;;;;18.42;16.38;;;8.40;99.90;;;;;;4163900;28;20260;-85
2023/02/24 09:14:43;;;;;;;23.98;21.52;;;8.50;99.90;;;;;;4163268;28;20045;-85
2023/02/24 09:17:10;;;;;;;17.73;15.77;;;8.60;99.90;;;;;;4160736;28;20089;-85
2023/02/24 09:22:14;;;;;;;20.35;18.13;;;8.90;99.90;;;;;;4164379;28;20156;-85
2023/02/24 09:24:41;;;;;;;19.27;17.55;;;8.80;99.90;;;;;;4145759;28;20254;-85
2023/02/24 09:27:03;;;;;;;20.17;18.40;;;8.80;99.90;;;;;;4150097;28;20072;-85
2023/02/24 09:29:33;;;;;;;18.67;17.05;;;8.90;99.90;;;;;;4158725;28;20113;-85
2023/02/24 09:32:03;;;;;;;21.33;17.70;;;9.00;99.90;;;;;;4157349;28;20327;-85
2023/02/24 09:34:28;;;;;;;23.55;18.90;;;9.10;99.90;;;;;;4146983;28;20045;-85
2023/02/24 09:37:01;;;;;;;21.27;19.08;;;9.00;99.90;;;;;;4160250;28;20280;-85
2023/02/24 09:39:21;;;;;;;18.50;17.02;;;9.10;99.90;;;;;;4175276;28;20043;-85
2023/02/24 09:41:52;;;;;;;21.17;16.90;;;9.00;99.90;;;;;;4192849;28;20078;-85
2023/02/24 09:44:18;;;;;;;20.30;18.38;;;9.00;99.90;;;;;;4189979;28;20035;-85
2023/02/24 09:46:52;;;;;;;19.67;17.58;;;9.20;99.90;;;;;;4186554;28;20381;-85
2023/02/24 09:49:16;;;;;;;19.27;17.33;;;9.30;99.90;;;;;;4191798;28;20075;-85
2023/02/24 09:51:41;;;;;;;20.80;17.20;;;9.30;99.90;;;;;;4193735;28;20055;-85
2023/02/24 09:54:02;;;;;;;21.83;17.98;;;9.50;99.90;;;;;;4190159;28;20036;-85
2023/02/24 09:56:31;;;;;;;20.67;16.33;;;9.70;99.90;;;;;;4178366;28;20072;-85
2023/02/24 09:58:54;;;;;;;20.08;16.55;;;9.80;99.90;;;;;;4192554;28;20267;-85
2023/02/24 10:01:32;;;;;;;18.92;16.35;;;9.70;99.90;;;;;;4189946;28;20066;-84
2023/02/24 10:04:04;;;;;;;21.27;14.88;;;9.70;99.90;;;;;;4198187;28;20049;-85
2023/02/24 10:06:45;;;;;;;14.43;13.43;;;9.70;99.90;;;;;;4195326;28;20366;-85
2023/02/24 10:09:23;;;;;;;15.27;13.85;;;9.70;99.90;;;;;;4193779;28;20051;-85
2023/02/24 10:11:55;;;;;;;14.35;13.00;;;9.80;99.90;;;;;;4183407;28;20075;-85
2023/02/24 10:14:18;;;;;;;12.48;11.75;;;9.70;99.90;;;;;;4189326;28;20043;-85
2023/02/24 10:16:41;;;;;;;10.93;10.43;;;9.70;99.90;;;;;;4190940;28;20071;-84
2023/02/24 10:19:25;;;;;;;15.20;14.05;;;9.70;99.90;;;;;;4189712;28;20039;-85
2023/02/24 10:21:59;;;;;;;12.07;11.07;;;9.80;99.90;;;;;;4190826;28;20386;-84
2023/02/24 10:24:34;;;;;;;12.88;11.75;;;9.80;99.90;;;;;;4194904;28;20071;-84
2023/02/24 10:27:22;;;;;;;12.15;11.13;;;9.70;99.90;;;;;;4187110;28;20078;-84
2023/02/24 10:29:54;;;;;;;13.07;12.00;;;9.70;99.90;;;;;;4195762;28;20135;-84
2023/02/24 10:32:32;;;;;;;11.60;10.73;;;9.60;99.90;;;;;;4193484;28;20048;-83
2023/02/24 10:34:52;;;;;;;11.10;10.60;;;9.70;99.90;;;;;;4198340;28;20048;-84
2023/02/24 10:37:19;;;;;;;11.63;11.10;;;9.60;99.90;;;;;;4193089;28;20071;-84
2023/02/24 10:39:49;;;;;;;13.38;12.38;;;9.60;99.90;;;;;;4188643;28;20036;-84
2023/02/24 10:42:26;;;;;;;13.48;12.32;;;9.60;99.90;;;;;;4191228;28;20266;-84
2023/02/24 10:44:52;;;;;;;14.50;13.60;;;9.60;99.90;;;;;;4201023;28;20080;-84
2023/02/24 10:47:31;;;;;;;14.25;12.82;;;9.60;99.90;;;;;;4201694;28;20046;-84
2023/02/24 10:49:57;;;;;;;13.95;12.73;;;9.60;99.90;;;;;;4194752;28;20048;-83
2023/02/24 10:55:26;;;;;;;11.32;10.68;;;9.60;99.90;;;;;;4197706;28;20071;-84
2023/02/24 10:57:50;;;;;;;11.52;10.85;;;9.50;99.90;;;;;;4195797;28;20055;-84
2023/02/24 11:00:31;;;;;;;10.98;10.23;;;9.50;99.90;;;;;;4195935;28;20056;-84
2023/02/24 11:03:24;;;;;;;11.57;10.90;;;9.60;99.90;;;;;;4188475;28;20271;-84
2023/02/24 11:11:18;;;;;;;11.55;10.70;;;9.70;99.90;;;;;;4193422;28;20052;-84
2023/02/24 11:19:06;;;;;;;12.55;11.77;;;9.70;99.90;;;;;;4189842;28;20160;-84
2023/02/24 11:21:27;;;;;;;12.60;11.77;;;9.70;99.90;;;;;;4181999;28;20088;-83
2023/02/24 11:23:51;;;;;;;15.20;14.07;;;9.70;99.90;;;;;;4193462;28;20370;-84
2023/02/24 11:26:22;;;;;;;11.57;10.98;;;9.70;99.90;;;;;;4190637;28;20106;-84
2023/02/24 11:29:06;;;;;;;14.48;11.88;;;9.70;99.90;;;;;;4197722;28;20039;-84
2023/02/24 11:32:07;;;;;;;14.55;10.75;;;9.70;99.90;;;;;;4195461;28;20059;-84
2023/02/24 11:34:34;;;;;;;10.35;9.45;;;9.60;99.90;;;;;;4178913;28;20141;-84
2023/02/24 11:37:19;;;;;;;10.50;9.38;;;9.60;99.90;;;;;;4201544;28;20416;-84
2023/02/24 11:39:58;;;;;;;11.88;11.20;;;9.50;99.90;;;;;;4189585;28;20040;-84
2023/02/24 11:42:42;;;;;;;11.82;10.98;;;9.50;99.90;;;;;;4212641;28;20310;-84
2023/02/24 11:45:26;;;;;;;10.93;10.52;;;9.60;99.90;;;;;;4192230;28;20051;-84
2023/02/24 11:48:03;;;;;;;12.80;11.70;;;9.60;99.90;;;;;;4212221;28;20040;-85
2023/02/24 11:50:54;;;;;;;13.30;12.20;;;9.50;99.90;;;;;;4185595;28;20100;-85
2023/02/24 11:53:23;;;;;;;12.80;11.63;;;9.50;99.90;;;;;;4194408;28;20321;-85
2023/02/24 11:55:48;;;;;;;12.80;11.82;;;9.50;99.90;;;;;;4196328;28;20040;-84
2023/02/24 11:58:17;;;;;;;11.40;10.85;;;9.50;99.90;;;;;;4196804;28;20412;-85
2023/02/24 12:00:42;;;;;;;13.65;12.52;;;9.60;99.90;;;;;;4194396;28;20079;-85
2023/02/24 12:03:31;;;;;;;13.55;12.57;;;9.70;99.90;;;;;;4189950;28;20044;-85
2023/02/24 12:06:00;;;;;;;15.30;13.85;;;9.70;99.90;;;;;;4192515;28;20040;-85
2023/02/24 12:08:33;;;;;;;11.40;10.73;;;9.80;99.90;;;;;;4189361;28;20138;-84
2023/02/24 12:11:04;;;;;;;12.20;11.18;;;9.70;99.90;;;;;;4189462;28;20105;-84
2023/02/24 12:13:38;;;;;;;13.68;12.48;;;9.60;99.90;;;;;;4202263;28;20083;-85
2023/02/24 12:16:14;;;;;;;13.27;12.13;;;9.60;99.90;;;;;;4191774;28;20055;-85
2023/02/24 12:19:03;;;;;;;11.55;10.82;;;9.70;99.90;;;;;;4209284;28;20074;-85
2023/02/24 12:21:30;;;;;;;13.68;12.48;;;9.70;99.90;;;;;;4202399;28;20044;-84
2023/02/24 12:23:54;;;;;;;12.60;11.70;;;9.60;99.90;;;;;;4194625;28;20044;-84
2023/02/24 12:26:19;;;;;;;14.15;13.10;;;9.50;99.90;;;;;;4181032;28;20379;-85
2023/02/24 12:28:39;;;;;;;12.70;11.77;;;9.50;99.90;;;;;;4184596;28;20059;-85
2023/02/24 12:31:12;;;;;;;13.20;12.38;;;9.40;99.90;;;;;;4196259;28;20052;-84
2023/02/24 12:34:00;;;;;;;13.47;12.33;;;9.40;99.90;;;;;;4196590;28;20083;-84
2023/02/24 12:36:37;;;;;;;13.65;12.57;;;9.40;99.90;;;;;;4186369;28;20091;-85
2023/02/24 12:39:41;;;;;;;13.95;12.73;;;9.40;99.90;;;;;;4194681;28;20111;-85
2023/02/24 12:42:33;;;;;;;12.40;11.40;;;9.40;99.90;;;;;;4158325;28;20048;-85
2023/02/24 12:45:10;;;;;;;10.20;9.57;;;9.50;99.90;;;;;;4161932;28;20080;-84
2023/02/24 12:47:31;;;;;;;11.50;10.40;;;9.50;99.90;;;;;;4161732;28;20087;-84
2023/02/24 12:50:13;;;;;;;10.35;10.02;;;9.50;99.90;;;;;;4163144;28;20063;-85
2023/02/24 12:52:38;;;;;;;11.02;10.63;;;9.50;99.90;;;;;;4167468;28;20052;-85
2023/02/24 12:55:10;;;;;;;12.50;11.77;;;9.50;99.90;;;;;;4150920;28;20049;-86
2023/02/24 12:58:07;;;;;;;11.75;11.05;;;9.50;99.90;;;;;;4162623;28;20056;-86
2023/02/24 13:00:44;;;;;;;12.38;11.38;;;9.60;99.90;;;;;;4164462;28;20114;-86
2023/02/24 13:03:20;;;;;;;11.25;10.57;;;9.60;99.90;;;;;;4162853;28;20095;-86
2023/02/24 13:05:58;;;;;;;11.77;11.15;;;9.50;99.90;;;;;;4151695;28;20072;-86
2023/02/24 13:08:37;;;;;;;13.27;12.10;;;9.50;99.90;;;;;;4147929;28;20232;-86
2023/02/24 13:11:15;;;;;;;12.38;11.23;;;9.60;99.90;;;;;;4150545;28;20395;-86
2023/02/24 13:13:52;;;;;;;13.43;12.13;;;9.60;99.90;;;;;;4163174;28;20332;-86
2023/02/24 13:16:12;;;;;;;11.15;10.63;;;9.50;99.90;;;;;;4151369;28;20073;-86
2023/02/24 13:18:35;;;;;;;12.13;11.32;;;9.50;99.90;;;;;;4167318;28;20654;-86
2023/02/24 13:21:02;;;;;;;14.70;13.48;;;9.50;99.90;;;;;;4194836;28;20048;-86
2023/02/24 13:23:22;;;;;;;15.73;14.60;;;9.50;99.90;;;;;;4202422;28;20044;-86
2023/02/24 13:25:50;;;;;;;15.15;14.02;;;9.40;99.90;;;;;;4194070;28;20070;-85
2023/02/24 13:28:26;;;;;;;15.65;13.98;;;9.40;99.90;;;;;;4191090;28;20104;-86
2023/02/24 13:30:46;;;;;;;18.70;16.80;;;9.30;99.90;;;;;;4188272;28;20354;-86
2023/02/24 13:33:22;;;;;;;17.23;15.55;;;9.30;99.90;;;;;;4183490;28;20071;-86
2023/02/24 13:35:42;;;;;;;19.80;17.05;;;9.30;99.90;;;;;;4184680;28;20141;-86